Time;durP1;ratioP1;P1;durP2;ratioP2;P2;SDS_P1;SDS_P2;PMS_P1;PMS_P2;Temp;Humidity;BMP_temperature;BMP_pressure;BME280_temperature;BME280_humidity;BME280_pressure;Samples;Min_cycle;Max_cycle;Signal;HPM_P1;HPM_P2
2023/06/27 00:01:44;;;;;;;;;;;16.30;95.80;;;;;;5097951;28;19921;-82
2023/06/27 00:04:10;;;;;;;;;;;16.40;96.00;;;;;;5114679;28;19956;-82
2023/06/27 00:06:40;;;;;;;;;;;16.30;95.90;;;;;;5097677;28;20773;-81
2023/06/27 00:09:10;;;;;;;;;;;16.30;95.90;;;;;;5114564;28;19919;-81
2023/06/27 00:11:39;;;;;;;;;;;16.30;95.90;;;;;;5098348;28;19960;-82
2023/06/27 00:14:05;;;;;;;;;;;16.30;96.20;;;;;;5097567;28;19965;-81
2023/06/27 00:16:32;;;;;;;;;;;16.20;96.30;;;;;;5115316;28;20362;-82
2023/06/27 00:19:03;;;;;;;;;;;16.20;96.30;;;;;;5098045;28;19916;-81
2023/06/27 00:21:29;;;;;;;;;;;16.20;96.40;;;;;;5115339;28;20263;-80
2023/06/27 00:23:59;;;;;;;;;;;16.20;96.70;;;;;;5115183;28;20408;-81
2023/06/27 00:26:25;;;;;;;;;;;16.10;97.00;;;;;;5098107;28;19918;-81
2023/06/27 00:28:51;;;;;;;;;;;16.00;96.90;;;;;;5097917;28;20381;-82
2023/06/27 00:31:16;;;;;;;;;;;15.90;97.10;;;;;;5097921;28;19922;-82
2023/06/27 00:33:42;;;;;;;;;;;15.90;97.40;;;;;;5098223;28;20374;-82
2023/06/27 00:36:07;;;;;;;;;;;15.80;97.70;;;;;;5114420;28;19922;-81
2023/06/27 00:38:33;;;;;;;;;;;15.70;98.00;;;;;;5114931;28;20386;-81
2023/06/27 00:40:59;;;;;;;;;;;15.60;98.20;;;;;;5097379;28;20705;-82
2023/06/27 00:43:27;;;;;;;;;;;15.60;98.60;;;;;;5098159;28;19919;-82
2023/06/27 00:45:54;;;;;;;;;;;15.50;98.80;;;;;;5097913;28;20386;-82
2023/06/27 00:48:20;;;;;;;;;;;15.50;99.00;;;;;;5100808;27;19955;-81
2023/06/27 00:50:46;;;;;;;;;;;15.50;99.20;;;;;;5118361;27;19938;-82
2023/06/27 00:53:12;;;;;;;;;;;15.40;99.70;;;;;;5118382;27;19912;-82
2023/06/27 00:55:39;;;;;;;;;;;15.40;99.80;;;;;;5100387;27;19915;-81
2023/06/27 00:58:06;;;;;;;;;;;15.30;99.90;;;;;;5101279;27;19915;-81
2023/06/27 01:00:31;;;;;;;;;;;15.30;99.90;;;;;;5118811;27;19965;-82
2023/06/27 01:02:57;;;;;;;;;;;15.30;99.90;;;;;;5119263;27;19915;-82
2023/06/27 01:05:24;;;;;;;;;;;15.20;99.90;;;;;;5118794;27;19998;-82
2023/06/27 01:07:56;;;;;;;;;;;15.20;99.90;;;;;;5102695;27;20056;-82
2023/06/27 01:10:26;;;;;;;;;;;15.20;99.90;;;;;;5121093;27;19918;-81
2023/06/27 01:12:58;;;;;;;;;;;15.20;99.90;;;;;;5120679;27;19911;-82
2023/06/27 01:15:24;;;;;;;;;;;15.20;99.90;;;;;;5119354;27;19911;-79
2023/06/27 01:17:50;;;;;;;;;;;15.10;99.90;;;;;;5119210;27;19911;-81
2023/06/27 01:20:18;;;;;;;;;;;15.10;99.90;;;;;;5101719;27;20010;-81
2023/06/27 01:22:46;;;;;;;;;;;15.10;99.90;;;;;;5101337;27;19961;-82
2023/06/27 01:25:12;;;;;;;;;;;15.00;99.90;;;;;;5152605;27;19912;-81
2023/06/27 01:27:38;;;;;;;;;;;15.00;99.90;;;;;;5100455;27;19926;-82
2023/06/27 01:30:04;;;;;;;;;;;14.90;99.90;;;;;;5100458;27;19912;-82
2023/06/27 01:32:51;;;;;;;;;;;14.90;99.90;;;;;;5100489;27;20002;-81
2023/06/27 01:35:26;;;;;;;;;;;14.80;99.90;;;;;;5117376;27;19926;-82
2023/06/27 01:37:55;;;;;;;;;;;14.80;99.90;;;;;;5117040;27;20002;-82
2023/06/27 01:40:21;;;;;;;;;;;14.70;99.90;;;;;;5100119;27;20522;-81
2023/06/27 01:42:49;;;;;;;;;;;14.70;99.90;;;;;;5098912;27;19923;-81
2023/06/27 01:45:18;;;;;;;;;;;14.60;99.90;;;;;;5100550;27;19912;-81
2023/06/27 01:47:43;;;;;;;;;;;14.60;99.90;;;;;;5113154;27;20266;-81
2023/06/27 01:50:10;;;;;;;;;;;14.60;99.90;;;;;;5100070;27;19907;-81
2023/06/27 01:52:35;;;;;;;;;;;14.50;99.90;;;;;;5117495;27;19921;-82
2023/06/27 01:55:03;;;;;;;;;;;14.40;99.90;;;;;;5117054;27;19911;-81
2023/06/27 01:57:32;;;;;;;;;;;14.40;99.90;;;;;;5117576;27;20009;-81
2023/06/27 01:59:58;;;;;;;;;;;14.30;99.90;;;;;;5099333;27;19960;-81
2023/06/27 02:02:23;;;;;;;;;;;14.30;99.90;;;;;;5117262;27;19924;-81
2023/06/27 02:04:49;;;;;;;;;;;14.20;99.90;;;;;;5116694;27;19907;-81
2023/06/27 02:07:15;;;;;;;;;;;14.20;99.90;;;;;;5116773;27;19981;-81
2023/06/27 02:09:41;;;;;;;;;;;14.20;99.90;;;;;;5099761;27;19994;-81
2023/06/27 02:12:09;;;;;;;;;;;14.10;99.90;;;;;;5116490;27;20011;-82
2023/06/27 02:14:34;;;;;;;;;;;14.20;99.90;;;;;;5116191;27;19918;-81
2023/06/27 02:17:00;;;;;;;;;;;14.10;99.90;;;;;;5099517;27;20367;-81
2023/06/27 02:19:53;;;;;;;;;;;14.00;99.90;;;;;;5099463;27;19968;-81
2023/06/27 02:22:19;;;;;;;;;;;13.80;99.90;;;;;;5133607;27;20010;-81
2023/06/27 02:24:44;;;;;;;;;;;13.70;99.90;;;;;;5099286;27;19976;-81
2023/06/27 02:27:10;;;;;;;;;;;13.70;99.90;;;;;;5099469;27;20362;-81
2023/06/27 02:29:37;;;;;;;;;;;13.60;99.90;;;;;;5098831;27;19948;-81
2023/06/27 02:32:03;;;;;;;;;;;13.70;99.90;;;;;;5116234;27;19912;-81
2023/06/27 02:34:29;;;;;;;;;;;13.50;99.90;;;;;;5099006;27;20278;-81
2023/06/27 02:36:54;;;;;;;;;;;13.40;99.90;;;;;;5099626;27;19922;-81
2023/06/27 02:39:20;;;;;;;;;;;13.30;99.90;;;;;;5116705;27;19919;-79
2023/06/27 02:41:45;;;;;;;;;;;13.10;99.90;;;;;;5116282;27;19964;-81
2023/06/27 02:44:11;;;;;;;;;;;13.10;99.90;;;;;;5099257;27;20498;-81
2023/06/27 02:46:40;;;;;;;;;;;13.00;99.90;;;;;;5099652;27;19976;-81
2023/06/27 02:49:05;;;;;;;;;;;13.10;99.90;;;;;;5099358;27;19924;-80
2023/06/27 02:51:31;;;;;;;;;;;13.10;99.90;;;;;;5116431;27;20264;-80
2023/06/27 02:53:56;;;;;;;;;;;13.00;99.90;;;;;;5115734;27;19911;-81
2023/06/27 02:59:51;;;;;;;;;;;12.90;99.90;;;;;;5131880;27;19922;-81
2023/06/27 03:02:17;;;;;;;;;;;12.90;99.90;;;;;;5098883;27;20683;-81
2023/06/27 03:04:44;;;;;;;;;;;13.00;99.90;;;;;;5099003;27;19915;-81
2023/06/27 03:07:10;;;;;;;;;;;12.90;99.90;;;;;;5115630;27;19998;-81
2023/06/27 03:09:36;;;;;;;;;;;12.90;99.90;;;;;;5099019;27;19929;-81
2023/06/27 03:12:02;;;;;;;;;;;12.80;99.90;;;;;;5114638;27;19911;-80
2023/06/27 03:14:30;;;;;;;;;;;12.60;99.90;;;;;;5099085;27;19960;-80
2023/06/27 03:16:58;;;;;;;;;;;12.50;99.90;;;;;;5098295;27;19919;-80
2023/06/27 03:19:24;;;;;;;;;;;12.40;99.90;;;;;;5098054;27;19919;-80
2023/06/27 03:21:49;;;;;;;;;;;12.30;99.90;;;;;;5108166;27;20036;-80
2023/06/27 03:24:15;;;;;;;;;;;12.30;99.90;;;;;;5098527;27;19918;-78
2023/06/27 03:26:45;;;;;;;;;;;12.20;99.90;;;;;;5095569;27;20419;-79
2023/06/27 03:29:11;;;;;;;;;;;12.10;99.90;;;;;;5115822;27;19912;-79
2023/06/27 03:32:03;;;;;;;;;;;12.00;99.90;;;;;;5115975;27;19911;-79
2023/06/27 03:34:28;;;;;;;;;;;12.00;99.90;;;;;;5098025;27;19915;-79
2023/06/27 03:36:54;;;;;;;;;;;12.00;99.90;;;;;;5115161;27;20389;-79
2023/06/27 03:39:19;;;;;;;;;;;11.90;99.90;;;;;;5098493;27;19919;-79
2023/06/27 03:41:47;;;;;;;;;;;12.00;99.90;;;;;;5098207;27;19916;-79
2023/06/27 03:44:12;;;;;;;;;;;12.00;99.90;;;;;;5114973;27;20018;-79
2023/06/27 03:46:38;;;;;;;;;;;12.10;99.90;;;;;;5115075;28;20385;-79
2023/06/27 03:49:04;;;;;;;;;;;12.20;99.90;;;;;;5097941;28;19908;-79
2023/06/27 03:51:31;;;;;;;;;;;12.40;99.90;;;;;;5098401;28;19915;-78
2023/06/27 03:53:58;;;;;;;;;;;12.50;99.90;;;;;;5098032;28;20697;-78
2023/06/27 03:56:24;;;;;;;;;;;12.50;99.90;;;;;;5115509;28;19968;-78
2023/06/27 03:58:50;;;;;;;;;;;12.60;99.90;;;;;;5115168;28;19915;-79
2023/06/27 04:01:17;;;;;;;;;;;12.60;99.90;;;;;;5115105;28;20282;-79
2023/06/27 04:03:43;;;;;;;;;;;12.70;99.90;;;;;;5098437;28;20320;-78
2023/06/27 04:06:09;;;;;;;;;;;12.70;99.90;;;;;;5114685;28;20001;-79
2023/06/27 04:08:34;;;;;;;;;;;12.70;99.90;;;;;;5114378;28;19915;-79
2023/06/27 04:11:00;;;;;;;;;;;12.70;99.90;;;;;;5114936;28;20052;-79
2023/06/27 04:13:26;;;;;;;;;;;12.80;99.90;;;;;;5097645;28;19922;-79
2023/06/27 04:15:52;;;;;;;;;;;12.70;99.90;;;;;;5115172;28;20618;-79
2023/06/27 04:18:18;;;;;;;;;;;12.70;99.90;;;;;;5114822;28;19916;-79
2023/06/27 04:20:43;;;;;;;;;;;12.70;99.90;;;;;;5097924;28;19912;-79
2023/06/27 04:23:09;;;;;;;;;;;12.70;99.90;;;;;;5100580;27;19911;-79
2023/06/27 04:25:35;;;;;;;;;;;12.70;99.90;;;;;;5101663;27;19915;-79
2023/06/27 04:28:03;;;;;;;;;;;12.80;99.90;;;;;;5101185;27;19973;-79
2023/06/27 04:30:29;;;;;;;;;;;12.80;99.90;;;;;;5137598;27;19912;-78
2023/06/27 04:32:54;;;;;;;;;;;12.90;99.90;;;;;;5137019;27;20396;-78
2023/06/27 04:35:20;;;;;;;;;;;12.90;99.90;;;;;;5119176;27;19911;-78
2023/06/27 04:37:46;;;;;;;;;;;12.90;99.90;;;;;;5118311;27;20052;-78
2023/06/27 04:40:12;;;;;;;;;;;13.00;99.90;;;;;;5119032;27;19957;-78
2023/06/27 04:42:38;;;;;;;;;;;13.00;99.90;;;;;;5101730;27;20600;-78
2023/06/27 04:45:05;;;;;;;;;;;13.00;99.90;;;;;;5118576;27;19914;-79
2023/06/27 04:47:32;;;;;;;;;;;13.10;99.90;;;;;;5118389;27;19924;-78
2023/06/27 04:49:58;;;;;;;;;;;13.20;99.90;;;;;;5119143;27;19918;-78
2023/06/27 04:52:24;;;;;;;;;;;13.40;99.90;;;;;;5117448;27;19912;-78
2023/06/27 04:55:15;;;;;;;;;;;13.50;99.90;;;;;;5117813;27;19911;-78
2023/06/27 04:57:41;;;;;;;;;;;13.60;99.90;;;;;;5114376;27;19912;-79
2023/06/27 05:00:09;;;;;;;;;;;13.80;99.90;;;;;;5100924;27;20010;-78
2023/06/27 05:02:35;;;;;;;;;;;13.80;99.90;;;;;;5153016;27;19923;-78
2023/06/27 05:05:01;;;;;;;;;;;13.90;99.90;;;;;;5100754;27;19953;-79
2023/06/27 05:07:26;;;;;;;;;;;13.90;99.90;;;;;;5101468;27;20409;-78
2023/06/27 05:09:52;;;;;;;;;;;13.90;99.90;;;;;;5118014;27;19928;-78
2023/06/27 05:12:17;;;;;;;;;;;14.00;99.90;;;;;;5117846;27;19915;-78
2023/06/27 05:14:43;;;;;;;;;;;14.10;99.90;;;;;;5117572;27;19922;-78
2023/06/27 05:17:08;;;;;;;;;;;14.20;99.90;;;;;;5100643;27;20320;-78
2023/06/27 05:19:34;;;;;;;;;;;14.30;99.90;;;;;;5100404;27;19915;-78
2023/06/27 05:21:59;;;;;;;;;;;14.50;99.90;;;;;;5100521;27;19911;-79
2023/06/27 05:24:25;;;;;;;;;;;14.60;99.90;;;;;;5135408;27;19915;-79
2023/06/27 05:26:51;;;;;;;;;;;14.80;99.90;;;;;;5117627;27;19915;-79
2023/06/27 05:29:16;;;;;;;;;;;14.90;99.90;;;;;;5117253;27;19911;-79
2023/06/27 05:31:42;;;;;;;;;;;14.90;99.90;;;;;;5117893;27;19914;-78
2023/06/27 05:34:07;;;;;;;;;;;14.90;99.90;;;;;;5099113;27;20010;-79
2023/06/27 05:36:33;;;;;;;;;;;15.00;99.90;;;;;;5117250;27;19918;-78
2023/06/27 05:38:59;;;;;;;;;;;15.10;99.90;;;;;;5099635;27;20014;-78
2023/06/27 05:41:24;;;;;;;;;;;15.30;99.90;;;;;;5099662;27;19919;-79
2023/06/27 05:43:50;;;;;;;;;;;15.50;99.90;;;;;;5109366;27;20346;-78
2023/06/27 05:46:16;;;;;;;;;;;15.70;99.90;;;;;;5112729;27;19966;-79
2023/06/27 05:48:41;;;;;;;;;;;15.90;99.90;;;;;;5105006;28;19958;-78
2023/06/27 05:51:07;;;;;;;;;;;16.00;99.90;;;;;;5096116;27;19935;-79
2023/06/27 05:53:33;;;;;;;;;;;16.10;99.90;;;;;;5134899;27;19911;-79
2023/06/27 05:55:58;;;;;;;;;;;16.10;99.90;;;;;;5115812;27;20412;-79
2023/06/27 05:58:24;;;;;;;;;;;16.20;99.90;;;;;;5129610;27;20330;-79
2023/06/27 06:00:50;;;;;;;;;;;16.30;99.90;;;;;;5112327;27;19912;-79
2023/06/27 06:03:16;;;;;;;;;;;16.40;99.90;;;;;;5099182;27;19911;-79
2023/06/27 06:05:41;;;;;;;;;;;16.40;99.90;;;;;;5098804;27;19908;-79
2023/06/27 06:08:07;;;;;;;;;;;16.40;99.90;;;;;;5112834;27;19937;-79
2023/06/27 06:10:33;;;;;;;;;;;16.40;99.90;;;;;;5095904;27;20440;-79
2023/06/27 06:12:58;;;;;;;;;;;16.40;99.90;;;;;;5107338;27;20007;-79
2023/06/27 06:15:24;;;;;;;;;;;16.40;99.90;;;;;;5107490;28;19931;-79
2023/06/27 06:17:50;;;;;;;;;;;16.50;99.90;;;;;;5100030;27;19938;-79
2023/06/27 06:20:15;;;;;;;;;;;16.60;99.90;;;;;;5104337;27;19912;-78
2023/06/27 06:22:41;;;;;;;;;;;16.90;99.90;;;;;;5122188;27;19915;-79
2023/06/27 06:25:07;;;;;;;;;;;16.90;99.90;;;;;;5131195;27;20007;-78
2023/06/27 06:27:33;;;;;;;;;;;17.10;99.90;;;;;;5107112;27;20525;-79
2023/06/27 06:29:59;;;;;;;;;;;17.20;99.90;;;;;;5110917;27;19915;-78
2023/06/27 06:32:24;;;;;;;;;;;17.20;99.90;;;;;;5113145;27;19911;-79
2023/06/27 06:34:52;;;;;;;;;;;17.40;99.90;;;;;;5104452;28;19957;-78
2023/06/27 06:37:18;;;;;;;;;;;17.70;99.90;;;;;;5089838;28;19923;-79
2023/06/27 06:39:44;;;;;;;;;;;18.10;99.90;;;;;;5125626;27;19912;-79
2023/06/27 06:42:10;;;;;;;;;;;18.30;99.90;;;;;;5108509;27;20278;-79
2023/06/27 06:44:37;;;;;;;;;;;18.40;99.90;;;;;;5124990;27;20010;-78
2023/06/27 06:47:03;;;;;;;;;;;18.50;99.90;;;;;;5126605;27;21873;-78
2023/06/27 06:49:29;;;;;;;;;;;18.80;99.90;;;;;;5108591;27;19922;-79
2023/06/27 06:51:54;;;;;;;;;;;19.00;99.90;;;;;;5113468;27;19918;-78
2023/06/27 06:54:20;;;;;;;;;;;18.80;99.90;;;;;;5105815;27;19911;-79
2023/06/27 06:56:48;;;;;;;;;;;18.70;99.90;;;;;;5095356;27;19920;-79
2023/06/27 06:59:15;;;;;;;;;;;18.70;99.90;;;;;;5095741;27;19961;-79
2023/06/27 07:01:41;;;;;;;;;;;18.70;99.90;;;;;;5108471;27;19956;-78
2023/06/27 07:04:06;;;;;;;;;;;18.50;99.90;;;;;;5101658;27;19923;-78
2023/06/27 07:06:32;;;;;;;;;;;18.50;99.90;;;;;;5098496;27;19911;-79
2023/06/27 07:08:58;;;;;;;;;;;18.30;99.90;;;;;;5108174;27;20009;-79
2023/06/27 07:11:24;;;;;;;;;;;18.30;99.90;;;;;;5087932;28;20002;-79
2023/06/27 07:13:49;;;;;;;;;;;18.80;99.90;;;;;;5105508;28;19912;-79
2023/06/27 07:16:15;;;;;;;;;;;19.80;99.90;;;;;;5114318;27;19968;-79
2023/06/27 07:18:41;;;;;;;;;;;21.30;99.90;;;;;;5095929;27;20419;-79
2023/06/27 07:21:06;;;;;;;;;;;22.90;99.10;;;;;;5093260;27;19922;-79
2023/06/27 07:23:32;;;;;;;;;;;23.90;95.70;;;;;;5128387;27;20631;-79
2023/06/27 07:25:57;;;;;;;;;;;24.60;94.60;;;;;;5095651;27;20635;-79
2023/06/27 07:28:23;;;;;;;;;;;25.50;91.70;;;;;;5109134;27;19919;-79
2023/06/27 07:30:49;;;;;;;;;;;25.70;89.80;;;;;;5096946;27;19955;-79
2023/06/27 07:33:14;;;;;;;;;;;26.20;88.10;;;;;;5097832;27;19925;-79
2023/06/27 07:35:40;;;;;;;;;;;26.60;85.10;;;;;;5093733;28;19943;-79
2023/06/27 07:38:06;;;;;;;;;;;27.20;81.70;;;;;;5109545;28;19916;-79
2023/06/27 07:40:32;;;;;;;;;;;27.50;79.50;;;;;;5096581;28;20287;-79
2023/06/27 07:42:57;;;;;;;;;;;27.80;77.50;;;;;;5096388;28;19919;-78
2023/06/27 07:45:23;;;;;;;;;;;27.30;77.10;;;;;;5090321;28;19995;-79
2023/06/27 07:47:49;;;;;;;;;;;26.00;79.60;;;;;;5091257;28;19951;-79
2023/06/27 07:50:14;;;;;;;;;;;24.40;81.20;;;;;;5091726;28;20024;-79
2023/06/27 07:52:40;;;;;;;;;;;23.60;84.60;;;;;;5107936;28;20278;-79
2023/06/27 07:55:06;;;;;;;;;;;22.90;88.70;;;;;;5123294;27;20136;-79
2023/06/27 07:57:32;;;;;;;;;;;22.30;88.50;;;;;;5129645;27;19935;-79
2023/06/27 07:59:57;;;;;;;;;;;21.90;90.10;;;;;;5115903;27;19915;-79
2023/06/27 08:02:48;;;;;;;;;;;22.30;90.10;;;;;;5119262;27;20299;-79
2023/06/27 08:05:14;;;;;;;;;;;23.20;88.50;;;;;;5149679;27;19912;-79
2023/06/27 08:07:39;;;;;;;;;;;24.90;83.90;;;;;;5137487;27;19915;-80
2023/06/27 08:10:20;;;;;;;;;;;25.70;80.90;;;;;;5119066;27;20007;-79
2023/06/27 08:12:45;;;;;;;;;;;26.30;78.60;;;;;;5133436;27;20015;-79
2023/06/27 08:15:11;;;;;;;;;;;26.20;78.50;;;;;;5137136;27;20346;-78
2023/06/27 08:17:37;;;;;;;;;;;26.00;79.10;;;;;;5119162;27;19911;-79
2023/06/27 08:20:04;;;;;;;;;;;26.40;77.90;;;;;;5101166;27;20012;-79
2023/06/27 08:22:29;;;;;;;;;;;26.10;79.00;;;;;;5118954;27;19912;-79
2023/06/27 08:24:55;;;;;;;;;;;26.10;78.00;;;;;;5101333;27;19976;-79
2023/06/27 08:27:26;;;;;;;;;;;26.50;76.00;;;;;;5101497;27;19948;-79
2023/06/27 08:29:52;;;;;;;;;;;27.30;75.00;;;;;;5131159;27;19968;-79
2023/06/27 08:32:17;;;;;;;;;;;28.50;72.40;;;;;;5118554;27;20354;-79
2023/06/27 08:34:43;;;;;;;;;;;28.60;72.10;;;;;;5118458;27;19934;-80
2023/06/27 08:37:09;;;;;;;;;;;28.50;71.80;;;;;;5118122;27;19924;-79
2023/06/27 08:39:36;;;;;;;;;;;27.30;71.10;;;;;;5111668;27;19938;-79
2023/06/27 08:42:02;;;;;;;;;;;26.60;69.60;;;;;;5118410;27;19958;-79
2023/06/27 08:44:28;;;;;;;;;;;26.10;73.00;;;;;;5100830;27;20572;-79
2023/06/27 08:46:55;;;;;;;;;;;26.10;70.30;;;;;;5118232;27;19915;-79
2023/06/27 08:49:24;;;;;;;;;;;26.90;69.00;;;;;;5136198;27;19915;-80
2023/06/27 08:51:51;;;;;;;;;;;27.20;70.20;;;;;;5136360;27;19918;-79
2023/06/27 08:54:21;;;;;;;;;;;26.70;69.40;;;;;;5117965;27;20442;-79
2023/06/27 08:56:47;;;;;;;;;;;26.90;68.60;;;;;;5101424;27;19963;-79
2023/06/27 08:59:14;;;;;;;;;;;26.80;68.90;;;;;;5118716;27;19964;-79
2023/06/27 09:01:40;;;;;;;;;;;26.50;70.30;;;;;;5101145;27;19912;-80
2023/06/27 09:04:06;;;;;;;;;;;26.90;71.20;;;;;;5117576;27;20015;-80
2023/06/27 09:06:32;;;;;;;;;;;27.20;70.20;;;;;;5101078;27;19915;-79
2023/06/27 09:08:57;;;;;;;;;;;27.30;71.50;;;;;;5130153;27;19922;-79
2023/06/27 09:11:54;;;;;;;;;;;27.40;69.10;;;;;;5136888;27;19998;-80
2023/06/27 09:14:20;;;;;;;;;;;27.70;68.90;;;;;;5101189;27;20548;-78
2023/06/27 09:16:46;;;;;;;;;;;27.80;67.40;;;;;;5118246;27;19920;-79
2023/06/27 09:19:11;;;;;;;;;;;27.40;69.20;;;;;;5117274;27;20384;-79
2023/06/27 09:21:37;;;;;;;;;;;27.40;69.20;;;;;;5100281;27;19915;-79
2023/06/27 09:24:06;;;;;;;;;;;28.20;68.40;;;;;;5099901;27;19918;-79
2023/06/27 09:26:32;;;;;;;;;;;27.40;67.40;;;;;;5099565;27;19912;-80
2023/06/27 09:28:59;;;;;;;;;;;26.80;67.00;;;;;;5151302;27;19915;-79
2023/06/27 09:31:24;;;;;;;;;;;26.10;69.80;;;;;;5117476;27;19911;-78
2023/06/27 09:33:50;;;;;;;;;;;25.00;70.80;;;;;;5117452;27;19918;-79
2023/06/27 09:36:45;;;;;;;;;;;24.20;73.60;;;;;;5117539;27;19970;-79
2023/06/27 09:39:12;;;;;;;;;;;23.90;74.20;;;;;;5099595;27;19911;-79
2023/06/27 09:41:48;;;;;;;;;;;24.40;74.70;;;;;;5111179;27;19915;-79
2023/06/27 09:44:15;;;;;;;;;;;24.60;75.80;;;;;;5129594;27;19919;-79
2023/06/27 09:46:41;;;;;;;;;;;25.20;76.00;;;;;;5096207;27;19923;-80
2023/06/27 09:49:08;;;;;;;;;;;26.00;70.00;;;;;;5114693;27;19919;-80
2023/06/27 09:51:34;;;;;;;;;;;25.60;70.30;;;;;;5125779;27;20485;-80
2023/06/27 09:54:00;;;;;;;;;;;25.70;68.00;;;;;;5141675;27;19912;-80
2023/06/27 09:56:30;;;;;;;;;;;26.40;67.60;;;;;;5101645;27;19912;-79
2023/06/27 09:58:56;;;;;;;;;;;26.20;67.80;;;;;;5112061;27;19911;-80
2023/06/27 10:01:37;;;;;;;;;;;26.30;67.40;;;;;;5110654;27;19963;-80
2023/06/27 10:04:03;;;;;;;;;;;25.90;69.30;;;;;;5113014;27;19911;-81
2023/06/27 10:06:29;;;;;;;;;;;25.60;67.50;;;;;;5110935;27;19911;-80
2023/06/27 10:08:55;;;;;;;;;;;25.10;67.80;;;;;;5117409;27;19923;-80
2023/06/27 10:11:22;;;;;;;;;;;24.80;70.10;;;;;;5129299;27;19911;-79
2023/06/27 10:13:48;;;;;;;;;;;24.40;70.40;;;;;;5085351;28;20359;-80
2023/06/27 10:16:14;;;;;;;;;;;23.70;73.00;;;;;;5090513;27;20019;-80
2023/06/27 10:18:40;;;;;;;;;;;23.60;72.60;;;;;;5128418;27;20385;-81
2023/06/27 10:21:05;;;;;;;;;;;24.10;73.50;;;;;;5109465;27;19908;-79
2023/06/27 10:23:34;;;;;;;;;;;24.10;73.40;;;;;;5097247;27;20005;-79
2023/06/27 10:26:00;;;;;;;;;;;23.90;72.40;;;;;;5093596;27;20345;-79
2023/06/27 10:28:28;;;;;;;;;;;23.40;74.60;;;;;;5097046;27;19919;-79
2023/06/27 10:30:54;;;;;;;;;;;22.70;76.00;;;;;;5104568;28;19919;-79
2023/06/27 10:33:27;;;;;;;;;;;22.40;76.20;;;;;;5134978;27;20285;-79
2023/06/27 10:35:57;;;;;;;;;;;22.50;77.00;;;;;;5099267;27;19919;-79
2023/06/27 10:38:23;;;;;;;;;;;22.70;77.50;;;;;;5098794;27;19961;-79
2023/06/27 10:41:06;;;;;;;;;;;22.90;77.30;;;;;;5116050;27;19915;-79
2023/06/27 10:43:35;;;;;;;;;;;23.40;75.30;;;;;;5109546;27;20006;-79
2023/06/27 10:46:06;;;;;;;;;;;23.30;74.10;;;;;;5099528;27;19965;-79
2023/06/27 10:48:35;;;;;;;;;;;23.50;76.00;;;;;;5134623;27;20365;-79
2023/06/27 10:51:07;;;;;;;;;;;23.50;76.20;;;;;;5134206;27;20278;-80
2023/06/27 10:53:32;;;;;;;;;;;23.30;74.40;;;;;;5099450;27;20445;-81
2023/06/27 10:56:13;;;;;;;;;;;23.60;73.80;;;;;;5115308;27;19918;-79
2023/06/27 10:58:44;;;;;;;;;;;23.80;73.40;;;;;;5098989;27;19912;-80
2023/06/27 11:01:11;;;;;;;;;;;24.10;72.70;;;;;;5098988;27;19919;-80
2023/06/27 11:03:41;;;;;;;;;;;23.90;73.30;;;;;;5098819;27;19922;-80
2023/06/27 11:06:07;;;;;;;;;;;23.80;72.70;;;;;;5098412;27;19946;-80
2023/06/27 11:08:32;;;;;;;;;;;24.00;72.50;;;;;;5115140;27;19977;-80
2023/06/27 11:11:04;;;;;;;;;;;24.60;72.40;;;;;;5098586;27;19911;-80
2023/06/27 11:13:32;;;;;;;;;;;24.60;71.60;;;;;;5115566;27;19983;-80
2023/06/27 11:15:57;;;;;;;;;;;24.60;72.50;;;;;;5133900;27;20674;-80
2023/06/27 11:18:26;;;;;;;;;;;25.00;71.50;;;;;;5115358;27;19920;-80
2023/06/27 11:20:53;;;;;;;;;;;25.50;70.20;;;;;;5098646;27;19919;-80
2023/06/27 11:23:20;;;;;;;;;;;25.30;68.70;;;;;;5094255;27;19916;-80
2023/06/27 11:25:46;;;;;;;;;;;25.40;69.60;;;;;;5124626;27;19930;-80
2023/06/27 11:28:19;;;;;;;;;;;25.50;69.80;;;;;;5114239;27;20005;-80
2023/06/27 11:30:45;;;;;;;;;;;26.00;67.50;;;;;;5104721;28;20428;-80
2023/06/27 11:33:13;;;;;;;;;;;25.60;69.60;;;;;;5115948;27;19920;-80
2023/06/27 11:35:42;;;;;;;;;;;25.30;70.00;;;;;;5085092;28;19963;-80
2023/06/27 11:38:09;;;;;;;;;;;25.00;69.80;;;;;;5128239;27;19911;-80
2023/06/27 11:40:35;;;;;;;;;;;24.60;70.30;;;;;;5105071;28;19919;-80
2023/06/27 11:43:00;;;;;;;;;;;24.20;72.10;;;;;;5103559;28;19912;-80
2023/06/27 11:45:26;;;;;;;;;;;24.40;71.50;;;;;;5104522;28;20366;-80
2023/06/27 11:47:53;;;;;;;;;;;24.40;71.40;;;;;;5084853;28;19915;-80
2023/06/27 11:50:19;;;;;;;;;;;24.50;70.70;;;;;;5125682;27;20014;-80
2023/06/27 11:52:46;;;;;;;;;;;24.30;71.40;;;;;;5104989;28;19951;-80
2023/06/27 11:55:12;;;;;;;;;;;24.00;72.10;;;;;;5087114;28;19911;-79
2023/06/27 11:57:44;;;;;;;;;;;23.50;71.40;;;;;;5093594;28;19908;-80
2023/06/27 12:00:23;;;;;;;;;;;23.20;73.50;;;;;;5105687;28;20625;-80
2023/06/27 12:02:55;;;;;;;;;;;23.00;73.50;;;;;;5106815;28;19920;-79
2023/06/27 12:05:22;;;;;;;;;;;22.90;74.30;;;;;;5138348;27;20017;-80
2023/06/27 12:07:57;;;;;;;;;;;23.60;73.70;;;;;;5105961;28;20391;-80
2023/06/27 12:10:22;;;;;;;;;;;23.70;72.20;;;;;;5090408;28;20319;-80
2023/06/27 12:12:49;;;;;;;;;;;24.10;71.10;;;;;;5101743;28;20008;-80
2023/06/27 12:15:15;;;;;;;;;;;23.80;72.40;;;;;;5102845;28;19926;-80
2023/06/27 12:17:59;;;;;;;;;;;23.30;74.10;;;;;;5124114;28;19916;-79
2023/06/27 12:20:25;;;;;;;;;;;23.00;75.50;;;;;;5121737;28;19972;-81
2023/06/27 12:22:51;;;;;;;;;;;22.70;75.40;;;;;;5124959;28;19912;-80
2023/06/27 12:25:17;;;;;;;;;;;23.00;75.50;;;;;;5106339;28;19956;-83
2023/06/27 12:27:42;;;;;;;;;;;22.80;74.40;;;;;;5090062;28;19919;-83
2023/06/27 12:30:10;;;;;;;;;;;22.90;75.80;;;;;;5115668;28;20002;-85
2023/06/27 12:32:36;;;;;;;;;;;22.80;75.40;;;;;;5097103;28;20298;-83
2023/06/27 12:35:02;;;;;;;;;;;22.70;76.20;;;;;;5087799;28;19912;-83
2023/06/27 12:37:29;;;;;;;;;;;22.70;76.30;;;;;;5091915;28;19912;-83
2023/06/27 12:39:54;;;;;;;;;;;22.70;76.60;;;;;;5114631;28;20355;-83
2023/06/27 12:42:20;;;;;;;;;;;23.00;76.70;;;;;;5121388;27;19927;-82
2023/06/27 12:44:46;;;;;;;;;;;23.50;75.40;;;;;;5121691;27;19915;-83
2023/06/27 12:47:11;;;;;;;;;;;23.40;76.00;;;;;;5104050;27;19939;-83
2023/06/27 12:49:37;;;;;;;;;;;23.30;75.80;;;;;;5112518;27;19912;-83
2023/06/27 12:52:03;;;;;;;;;;;23.40;76.00;;;;;;5094255;27;19911;-83
2023/06/27 12:54:29;;;;;;;;;;;23.30;76.80;;;;;;5110359;28;19912;-83
2023/06/27 12:56:54;;;;;;;;;;;23.10;77.10;;;;;;5113528;27;20034;-83
2023/06/27 12:59:26;;;;;;;;;;;23.00;77.30;;;;;;5097633;27;19956;-83
2023/06/27 13:01:55;;;;;;;;;;;23.00;76.80;;;;;;5093407;27;20320;-84
2023/06/27 13:04:29;;;;;;;;;;;23.40;75.80;;;;;;5098745;27;19911;-83
2023/06/27 13:06:56;;;;;;;;;;;23.60;75.10;;;;;;5097283;27;19922;-84
2023/06/27 13:09:22;;;;;;;;;;;23.80;75.60;;;;;;5112533;27;19941;-84
2023/06/27 13:11:48;;;;;;;;;;;24.20;72.80;;;;;;5083337;28;20374;-83
2023/06/27 13:14:13;;;;;;;;;;;24.40;74.50;;;;;;5129363;27;20022;-83
2023/06/27 13:16:39;;;;;;;;;;;24.70;72.50;;;;;;5091196;28;19912;-83
2023/06/27 13:19:07;;;;;;;;;;;24.20;71.20;;;;;;5110132;27;19916;-83
2023/06/27 13:21:37;;;;;;;;;;;24.60;70.60;;;;;;5101002;27;19919;-84
2023/06/27 13:24:03;;;;;;;;;;;25.10;71.30;;;;;;5099862;27;20363;-83
2023/06/27 13:26:29;;;;;;;;;;;26.00;70.20;;;;;;5129487;27;20017;-82
2023/06/27 13:28:55;;;;;;;;;;;26.40;70.20;;;;;;5117780;27;20389;-83
2023/06/27 13:31:21;;;;;;;;;;;25.70;68.70;;;;;;5100808;27;19918;-83
2023/06/27 13:33:47;;;;;;;;;;;25.40;68.10;;;;;;5101020;27;20388;-83
2023/06/27 13:36:12;;;;;;;;;;;25.00;68.20;;;;;;5119567;27;19915;-82
2023/06/27 13:38:40;;;;;;;;;;;25.10;67.80;;;;;;5118387;27;20286;-81
2023/06/27 13:41:05;;;;;;;;;;;24.80;70.20;;;;;;5084026;27;20006;-83
2023/06/27 13:43:31;;;;;;;;;;;24.20;72.00;;;;;;5100073;27;20010;-83
2023/06/27 13:45:57;;;;;;;;;;;24.20;72.50;;;;;;5099215;27;19915;-82
2023/06/27 13:48:23;;;;;;;;;;;24.40;73.60;;;;;;5113804;27;19919;-83
2023/06/27 13:50:54;;;;;;;;;;;24.50;71.00;;;;;;5115293;27;19994;-83
2023/06/27 13:53:21;;;;;;;;;;;24.70;72.90;;;;;;5117030;27;19968;-83
2023/06/27 13:55:46;;;;;;;;;;;24.40;72.40;;;;;;5115717;27;19934;-82
2023/06/27 13:58:12;;;;;;;;;;;24.00;72.90;;;;;;5100749;27;19911;-82
2023/06/27 14:00:38;;;;;;;;;;;24.00;72.50;;;;;;5135693;27;19923;-83
2023/06/27 14:03:03;;;;;;;;;;;24.20;72.10;;;;;;5099641;27;19911;-82
2023/06/27 14:05:35;;;;;;;;;;;24.30;71.50;;;;;;5117661;27;19998;-82
2023/06/27 14:08:00;;;;;;;;;;;24.30;72.40;;;;;;5099592;27;19915;-83
2023/06/27 14:10:26;;;;;;;;;;;24.30;71.50;;;;;;5099750;27;19915;-82
2023/06/27 14:12:52;;;;;;;;;;;24.50;70.90;;;;;;5117328;27;19991;-83
2023/06/27 14:15:19;;;;;;;;;;;24.50;71.60;;;;;;5099714;27;19919;-82
2023/06/27 14:17:45;;;;;;;;;;;25.20;71.70;;;;;;5099695;27;19919;-83
2023/06/27 14:20:30;;;;;;;;;;;25.40;68.80;;;;;;5119002;27;19919;-82